Lifter — V2DD4 — position and weather

sailwx.info

Track history (hours):
 
Tides and Currents Weather Stations Pressure Air Temp Water Temp Dewpoint Dewpoint Depression Visibility Wind Speed Wind Dir Waves Ship Positions

Lifter

Last reported at 2014-Oct-17 17:33 UTC. Time now 2014-Oct-21 10:35 UTC.
Position N 41°23' E 029°41'.

Length 118 m; draft 4.6 m.

Type: Ship. MMSI: 305175000.

Date/timePositionNaut miles runAvg speedWind from/ knotsBaromVisibWave heightAir tempDewpointWater temp
2014-Oct-17 17:33N 41°23' E 029°41'1414.6
2014-Oct-17 16:33N 41°18' E 029°23'  
2014-Oct-10 19:09N 38°04' E 024°47'4211.6
2014-Oct-10 15:29N 37°33' E 024°10'1312.1
2014-Oct-10 14:26N 37°22' E 024°02'45811.7
2014-Oct-08 23:20N 36°36' E 014°32'1013.1
2014-Oct-08 22:33N 36°38' E 014°19'1313.1
2014-Oct-08 21:33N 36°41' E 014°04'1313.1
2014-Oct-08 20:33N 36°44' E 013°48'1312.9
2014-Oct-08 19:31N 36°47' E 013°31'1412.7
2014-Oct-08 18:25N 36°51' E 013°14'1312.5
2014-Oct-08 17:25N 36°54' E 012°59'1112.5
2014-Oct-08 16:33N 36°56' E 012°46'1312.2
2014-Oct-08 15:28N 36°59' E 012°30'3712.6
2014-Oct-08 12:33N 37°09' E 011°46'8612.3
2014-Oct-08 05:33N 37°33' E 010°02'1313.2
2014-Oct-08 04:33N 37°30' E 009°46'1313.2
2014-Oct-08 03:33N 37°26' E 009°29'6412.8
2014-Oct-07 22:33N 37°19' E 008°09'1312.3
2014-Oct-07 21:32N 37°19' E 007°54'  
Track history (hours):
 
Tides and Currents Weather Stations Pressure Air Temp Water Temp Dewpoint Dewpoint Depression Visibility Wind Speed Wind Dir Waves Ship Positions

Lifter

Last reported at 2014-Oct-17 17:33 UTC. Time now 2014-Oct-21 10:35 UTC.
Position N 41°23' E 029°41'.

Length 118 m; draft 4.6 m.

Type: Ship. MMSI: 305175000.

Date/timePositionNaut miles runAvg speedWind from/ knotsBaromVisibWave heightAir tempDewpointWater temp
2014-Oct-17 17:33N 41°23' E 029°41'1414.6
2014-Oct-17 16:33N 41°18' E 029°23'  
2014-Oct-10 19:09N 38°04' E 024°47'4211.6
2014-Oct-10 15:29N 37°33' E 024°10'1312.1
2014-Oct-10 14:26N 37°22' E 024°02'45811.7
2014-Oct-08 23:20N 36°36' E 014°32'1013.1
2014-Oct-08 22:33N 36°38' E 014°19'1313.1
2014-Oct-08 21:33N 36°41' E 014°04'1313.1
2014-Oct-08 20:33N 36°44' E 013°48'1312.9
2014-Oct-08 19:31N 36°47' E 013°31'1412.7
2014-Oct-08 18:25N 36°51' E 013°14'1312.5
2014-Oct-08 17:25N 36°54' E 012°59'1112.5
2014-Oct-08 16:33N 36°56' E 012°46'1312.2
2014-Oct-08 15:28N 36°59' E 012°30'3712.6
2014-Oct-08 12:33N 37°09' E 011°46'8612.3
2014-Oct-08 05:33N 37°33' E 010°02'1313.2
2014-Oct-08 04:33N 37°30' E 009°46'1313.2
2014-Oct-08 03:33N 37°26' E 009°29'6412.8
2014-Oct-07 22:33N 37°19' E 008°09'1312.3
2014-Oct-07 21:32N 37°19' E 007°54'  

Dump ship's entire track history